Time;durP1;ratioP1;P1;durP2;ratioP2;P2;SDS_P1;SDS_P2;PMS_P1;PMS_P2;Temp;Humidity;BMP_temperature;BMP_pressure;BME280_temperature;BME280_humidity;BME280_pressure;Samples;Min_cycle;Max_cycle;Signal;HPM_P1;HPM_P2
2022/02/16 00:00:41;;;;;;;17.45;16.45;;;;;;;4.06;100.00;99502.88;5002423;28;20057;-80
2022/02/16 00:03:10;;;;;;;17.85;16.80;;;;;;;4.00;100.00;99487.78;5005000;28;20061;-81
2022/02/16 00:05:43;;;;;;;18.42;17.33;;;;;;;4.09;100.00;99499.66;5010553;28;20045;-80
2022/02/16 00:08:12;;;;;;;19.05;17.95;;;;;;;4.13;100.00;99508.00;5008063;28;20057;-81
2022/02/16 00:10:45;;;;;;;19.02;17.92;;;;;;;4.10;100.00;99503.13;5013903;28;20050;-79
2022/02/16 00:13:14;;;;;;;20.20;19.00;;;;;;;4.10;100.00;99500.44;5001910;28;20057;-81
2022/02/16 00:15:49;;;;;;;20.42;19.23;;;;;;;4.14;100.00;99498.84;4999386;28;20046;-80
2022/02/16 00:18:22;;;;;;;21.15;19.95;;;;;;;4.15;100.00;99496.97;5000624;28;20054;-80
2022/02/16 00:20:56;;;;;;;22.38;21.08;;;;;;;4.16;100.00;99496.69;4999708;28;20062;-80
2022/02/16 00:23:29;;;;;;;22.13;20.83;;;;;;;4.18;100.00;99497.22;5005520;28;20061;-80
2022/02/16 00:25:59;;;;;;;22.58;21.27;;;;;;;4.18;100.00;99497.22;5000305;28;20440;-79
2022/02/16 00:28:34;;;;;;;23.05;21.75;;;;;;;4.23;100.00;99496.44;5005034;28;20056;-80
2022/02/16 00:31:02;;;;;;;23.42;22.13;;;;;;;4.26;100.00;99499.41;5005442;28;20050;-80
2022/02/16 00:33:35;;;;;;;25.27;23.88;;;;;;;4.27;100.00;99497.53;4997964;28;20407;-80
2022/02/16 00:36:08;;;;;;;24.55;23.15;;;;;;;4.29;100.00;99489.97;5006555;28;20053;-80
2022/02/16 00:38:42;;;;;;;23.95;22.60;;;;;;;4.32;100.00;99475.97;5008186;28;20363;-80
2022/02/16 00:41:16;;;;;;;27.98;26.42;;;;;;;4.41;100.00;99479.75;5003878;28;20053;-80
2022/02/16 00:43:50;;;;;;;27.35;25.85;;;;;;;4.46;100.00;99487.06;5007912;28;20049;-80
2022/02/16 00:46:18;;;;;;;30.75;29.05;;;;;;;4.51;100.00;99492.44;5007283;28;20057;-80
2022/02/16 00:48:51;;;;;;;30.92;29.23;;;;;;;4.49;100.00;99483.81;5004047;28;20046;-79
2022/02/16 00:51:24;;;;;;;30.65;28.95;;;;;;;4.48;100.00;99484.09;4993305;28;20042;-80
2022/02/16 00:53:58;;;;;;;29.80;28.17;;;;;;;4.48;100.00;99490.28;5009151;28;20050;-80
2022/02/16 00:56:31;;;;;;;31.77;30.05;;;;;;;4.51;100.00;99473.56;5011131;28;20050;-79
2022/02/16 00:59:01;;;;;;;30.23;28.55;;;;;;;4.55;100.00;99480.03;5011955;28;20057;-80
2022/02/16 01:01:36;;;;;;;33.50;31.70;;;;;;;4.55;100.00;99482.72;5011671;28;20050;-80
2022/02/16 01:04:09;;;;;;;36.05;34.08;;;;;;;4.55;100.00;99476.53;5011314;28;20430;-80
2022/02/16 01:06:37;;;;;;;37.63;35.63;;;;;;;4.51;100.00;99473.56;5010817;28;20073;-80
2022/02/16 01:09:10;;;;;;;35.65;33.72;;;;;;;4.46;100.00;99473.59;5011561;28;20057;-80
2022/02/16 01:11:46;;;;;;;40.60;38.40;;;;;;;4.51;100.00;99462.78;5013105;28;20056;-80
2022/02/16 01:14:16;;;;;;;40.45;38.25;;;;;;;4.52;100.00;99463.63;5011069;28;20054;-79
2022/02/16 01:17:12;;;;;;;44.63;42.22;;;;;;;4.49;100.00;99456.06;5008930;28;20077;-80
2022/02/16 01:20:10;;;;;;;47.08;44.58;;;;;;;4.50;100.00;99446.91;4994938;28;20054;-80
2022/02/16 01:22:44;;;;;;;49.72;47.05;;;;;;;4.48;100.00;99435.59;5011987;28;20050;-80
2022/02/16 01:25:19;;;;;;;50.55;47.85;;;;;;;4.47;100.00;99431.28;5011939;28;20061;-80
2022/02/16 01:27:47;;;;;;;49.92;47.25;;;;;;;4.52;100.00;99440.16;5012358;28;20042;-80
2022/02/16 01:30:19;;;;;;;53.40;50.53;;;;;;;4.50;100.00;99439.66;5012564;28;20069;-80
2022/02/16 01:33:04;;;;;;;52.28;49.47;;;;;;;4.52;100.00;99434.78;5011861;28;20058;-80
2022/02/16 01:35:47;;;;;;;55.78;52.78;;;;;;;4.44;100.00;99421.84;4999986;28;20056;-79
2022/02/16 01:38:15;;;;;;;57.20;54.15;;;;;;;4.47;100.00;99428.59;5011097;28;20152;-80
2022/02/16 01:40:56;;;;;;;61.15;57.88;;;;;;;4.45;100.00;99418.09;5011903;28;20053;-79
2022/02/16 01:43:30;;;;;;;64.63;61.15;;;;;;;4.50;100.00;99418.09;5009669;28;20053;-79
2022/02/16 01:46:00;;;;;;;64.47;60.97;;;;;;;4.51;100.00;99414.28;5011577;28;20061;-79
2022/02/16 01:48:28;;;;;;;69.72;66.03;;;;;;;4.47;100.00;99398.94;5011486;28;20053;-80
2022/02/16 01:51:01;;;;;;;72.55;68.68;;;;;;;4.50;100.00;99403.78;5000799;28;20499;-80
2022/02/16 01:53:40;;;;;;;74.55;70.57;;;;;;;4.46;100.00;99408.09;4992218;28;20065;-79
2022/02/16 01:56:09;;;;;;;74.90;70.90;;;;;;;4.46;100.00;99394.63;4999189;28;20502;-80
2022/02/16 01:58:45;;;;;;;83.15;78.75;;;;;;;4.50;100.00;99393.03;5011751;28;20053;-79
2022/02/16 02:01:32;;;;;;;84.85;80.38;;;;;;;4.46;100.00;99389.25;5015730;28;20058;-80
2022/02/16 02:04:10;;;;;;;83.05;78.65;;;;;;;4.49;100.00;99388.69;5010643;28;20065;-80
2022/02/16 02:06:43;;;;;;;89.47;84.78;;;;;;;4.58;100.00;99387.91;5010283;28;20050;-80
2022/02/16 02:09:16;;;;;;;98.38;93.25;;;;;;;4.61;100.00;99375.75;5011035;28;20058;-80
2022/02/16 02:11:50;;;;;;;103.72;98.32;;;;;;;4.58;100.00;99371.75;5010428;28;20422;-79
2022/02/16 02:14:23;;;;;;;109.03;103.40;;;;;;;4.65;100.00;99368.75;5009819;28;20053;-80
2022/02/16 02:17:02;;;;;;;118.13;112.03;;;;;;;4.58;100.00;99355.56;5009616;28;20050;-80
2022/02/16 02:19:30;;;;;;;118.32;112.18;;;;;;;4.63;100.00;99359.31;4999203;28;20061;-79
2022/02/16 02:22:01;;;;;;;129.10;122.40;;;;;;;4.75;100.00;99357.94;4994085;28;20057;-80
2022/02/16 02:24:35;;;;;;;134.88;127.85;;;;;;;4.74;100.00;99356.34;5009593;28;20065;-79
2022/02/16 02:27:08;;;;;;;140.85;133.48;;;;;;;4.77;100.00;99354.97;5000125;28;20046;-80
2022/02/16 02:29:39;;;;;;;148.00;140.20;;;;;;;4.79;100.00;99344.72;5001762;28;20053;-80
2022/02/16 02:32:16;;;;;;;155.07;146.90;;;;;;;4.74;100.00;99340.16;5001345;28;20064;-80
2022/02/16 02:34:52;;;;;;;167.88;158.88;;;;;;;4.81;100.00;99344.47;4999337;28;20426;-80
2022/02/16 02:37:22;;;;;;;187.30;177.20;;;;;;;4.80;100.00;99348.25;5003766;28;20502;-80
2022/02/16 02:39:55;;;;;;;199.88;189.13;;;;;;;4.76;100.00;99342.56;5005608;28;20065;-80
2022/02/16 02:42:30;;;;;;;233.27;220.77;;;;;;;4.74;100.00;99329.38;5001053;28;20060;-79
2022/02/16 02:45:04;;;;;;;263.13;248.93;;;;;;;4.83;100.00;99328.81;5004689;28;20084;-79
2022/02/16 02:47:37;;;;;;;301.38;284.67;;;;;;;4.88;100.00;99326.91;5001706;28;20403;-80
2022/02/16 02:50:11;;;;;;;342.42;322.90;;;;;;;4.89;100.00;99327.72;4999228;28;20043;-80
2022/02/16 02:52:46;;;;;;;375.63;353.48;;;;;;;4.84;100.00;99317.75;5009517;28;20396;-80
2022/02/16 02:55:21;;;;;;;452.13;424.08;;;;;;;4.81;100.00;99310.22;5007406;28;20059;-80
2022/02/16 02:57:54;;;;;;;508.90;476.63;;;;;;;4.87;100.00;99314.50;4998571;28;20058;-79
2022/02/16 03:00:27;;;;;;;607.75;567.17;;;;;;;4.86;100.00;99312.09;5000502;28;20058;-80
2022/02/16 03:03:00;;;;;;;722.80;672.92;;;;;;;4.90;100.00;99315.84;4993927;28;20533;-80
2022/02/16 03:05:29;;;;;;;863.67;801.47;;;;;;;4.89;100.00;99306.16;5007199;28;20054;-80
2022/02/16 03:07:58;;;;;;;999.90;924.30;;;;;;;4.90;100.00;99302.38;5006714;28;20052;-80
2022/02/16 03:10:32;;;;;;;1077.10;991.70;;;;;;;4.89;100.00;99301.56;5005106;28;20053;-80
2022/02/16 03:13:18;;;;;;;1134.50;999.90;;;;;;;4.93;100.00;99302.63;4995690;28;20061;-80
2022/02/16 03:15:59;;;;;;;1171.60;999.90;;;;;;;4.96;100.00;99300.44;5007028;28;20076;-80
2022/02/16 03:18:33;;;;;;;1192.70;999.90;;;;;;;4.97;100.00;99293.97;5006876;28;20395;-80
2022/02/16 03:21:06;;;;;;;1202.35;999.90;;;;;;;4.92;100.00;99301.00;4999261;28;20053;-80
2022/02/16 03:23:41;;;;;;;1210.43;999.90;;;;;;;4.99;100.00;99291.84;4991263;28;20050;-80
2022/02/16 03:26:14;;;;;;;1217.65;999.90;;;;;;;4.94;100.00;99290.78;5003361;28;20049;-80
2022/02/16 03:28:48;;;;;;;1222.22;999.90;;;;;;;5.02;100.00;99297.47;4999558;28;20414;-80
2022/02/16 03:31:24;;;;;;;1225.72;999.90;;;;;;;4.97;100.00;99300.16;5000636;28;20053;-79
2022/02/16 03:34:03;;;;;;;1231.40;999.90;;;;;;;5.03;100.00;99304.47;4995652;28;20062;-80
2022/02/16 03:36:45;;;;;;;1237.22;999.90;;;;;;;5.05;100.00;99312.28;5000038;28;20050;-80
2022/02/16 03:39:19;;;;;;;1241.28;999.90;;;;;;;5.05;100.00;99310.38;5006914;28;20050;-79
2022/02/16 03:41:49;;;;;;;1241.57;999.90;;;;;;;5.04;100.00;99318.75;5015309;28;20053;-80
2022/02/16 03:44:19;;;;;;;1245.63;999.90;;;;;;;5.13;100.00;99319.00;5006572;28;20046;-80
2022/02/16 03:46:55;;;;;;;1248.28;999.90;;;;;;;4.97;100.00;99312.84;4999752;28;20469;-80
2022/02/16 03:49:28;;;;;;;1253.60;999.90;;;;;;;5.02;100.00;99320.94;5004268;28;20049;-80
2022/02/16 03:52:02;;;;;;;1257.50;999.90;;;;;;;5.14;100.00;99316.03;5005929;28;20053;-80
2022/02/16 03:54:36;;;;;;;1260.43;999.90;;;;;;;5.03;100.00;99304.47;5013877;28;20050;-80
2022/02/16 03:57:10;;;;;;;1267.10;999.90;;;;;;;5.08;100.00;99311.72;5001097;28;20054;-80
2022/02/16 03:59:43;;;;;;;1270.57;999.90;;;;;;;5.09;100.00;99311.44;5003981;28;20064;-79
2022/02/16 04:02:42;;;;;;;1272.38;999.90;;;;;;;5.13;100.00;99308.22;5002296;28;20126;-79
2022/02/16 04:05:15;;;;;;;1281.55;999.90;;;;;;;5.15;100.00;99308.72;4996578;28;20057;-80
2022/02/16 04:07:49;;;;;;;1285.55;999.90;;;;;;;5.17;100.00;99299.28;5004398;28;20054;-80
2022/02/16 04:10:23;;;;;;;1288.13;999.90;;;;;;;5.11;100.00;99295.81;4997743;28;20054;-80
2022/02/16 04:13:00;;;;;;;;;;;;;;;5.11;100.00;99285.03;5004024;28;20065;-80
2022/02/16 04:15:36;;;;;;;1293.80;999.90;;;;;;;5.16;100.00;99278.78;5005299;28;19949;-80
2022/02/16 04:18:11;;;;;;;1299.75;999.90;;;;;;;5.10;100.00;99280.69;5003604;28;20446;-80
2022/02/16 04:20:40;;;;;;;1302.82;999.90;;;;;;;5.07;100.00;99281.25;5010540;28;20418;-79
2022/02/16 04:23:12;;;;;;;1307.03;999.90;;;;;;;5.11;100.00;99274.22;5012052;28;20069;-80
2022/02/16 04:25:47;;;;;;;1312.93;999.90;;;;;;;5.13;100.00;99276.66;5008616;28;20058;-80
2022/02/16 04:28:15;;;;;;;1314.95;999.90;;;;;;;5.07;100.00;99270.47;5006490;28;20050;-79
2022/02/16 04:30:43;;;;;;;1319.28;999.90;;;;;;;5.08;100.00;99264.00;5008435;28;20060;-80
2022/02/16 04:33:16;;;;;;;1320.75;999.90;;;;;;;5.07;100.00;99262.38;5008395;28;20521;-80
2022/02/16 04:35:49;;;;;;;1322.43;999.90;;;;;;;5.09;100.00;99256.72;5001036;28;20042;-80
2022/02/16 04:38:23;;;;;;;1321.47;999.90;;;;;;;5.13;100.00;99241.59;5002654;28;20046;-80
2022/02/16 04:40:53;;;;;;;1325.53;999.90;;;;;;;5.16;100.00;99253.72;5010454;28;20053;-80
2022/02/16 04:43:28;;;;;;;1323.65;999.90;;;;;;;5.06;100.00;99228.41;5001420;28;20050;-80
2022/02/16 04:46:02;;;;;;;1326.95;999.90;;;;;;;5.03;100.00;99228.19;5000669;28;20061;-80
2022/02/16 04:48:31;;;;;;;1325.28;999.90;;;;;;;5.05;100.00;99242.19;5010981;28;20054;-80
2022/02/16 04:51:04;;;;;;;1327.35;999.90;;;;;;;5.06;100.00;99233.00;5009960;28;20065;-80
2022/02/16 04:53:35;;;;;;;1331.55;999.90;;;;;;;5.08;100.00;99237.03;5000055;28;20108;-80
2022/02/16 04:56:09;;;;;;;1329.45;999.90;;;;;;;5.06;100.00;99230.31;5009829;28;20433;-80
2022/02/16 04:58:42;;;;;;;1334.25;999.90;;;;;;;5.12;100.00;99231.88;5008134;28;20057;-80
2022/02/16 05:01:20;;;;;;;1336.88;999.90;;;;;;;5.06;100.00;99224.91;5003793;28;20054;-80
2022/02/16 05:03:51;;;;;;;1340.88;999.90;;;;;;;5.10;100.00;99207.09;5003361;28;20045;-80
2022/02/16 05:06:25;;;;;;;1342.97;999.90;;;;;;;5.08;100.00;99206.56;5006467;28;20438;-80
2022/02/16 05:08:58;;;;;;;1342.57;999.90;;;;;;;5.07;100.00;99199.56;5007981;28;20050;-80
2022/02/16 05:11:33;;;;;;;1347.38;999.90;;;;;;;5.06;100.00;99198.75;5008169;28;20057;-80
2022/02/16 05:14:09;;;;;;;1353.45;999.90;;;;;;;5.09;100.00;99206.28;5003006;28;20054;-80
2022/02/16 05:16:41;;;;;;;1356.50;999.90;;;;;;;5.06;100.00;99192.56;5003651;28;20472;-80
2022/02/16 05:19:09;;;;;;;1359.47;999.90;;;;;;;5.10;100.00;99197.09;5004336;28;20062;-81
2022/02/16 05:21:45;;;;;;;1362.75;999.90;;;;;;;5.08;100.00;99193.06;4997961;28;20050;-80
2022/02/16 05:24:24;;;;;;;1369.45;999.90;;;;;;;5.08;100.00;99191.19;5001279;28;20058;-79
2022/02/16 05:26:55;;;;;;;1370.28;999.90;;;;;;;5.04;100.00;99165.88;5008115;28;20050;-79
2022/02/16 05:29:29;;;;;;;1380.60;999.90;;;;;;;5.04;100.00;99162.38;5021645;28;20420;-80
2022/02/16 05:32:09;;;;;;;1386.45;999.90;;;;;;;5.13;100.00;99154.50;5001093;28;20060;-80
2022/02/16 05:34:42;;;;;;;1384.18;999.90;;;;;;;5.09;100.00;99143.47;4998827;28;20046;-80
2022/02/16 05:37:15;;;;;;;1386.85;999.90;;;;;;;5.09;100.00;99135.38;5007515;28;20069;-79
2022/02/16 05:39:48;;;;;;;1384.40;999.90;;;;;;;5.05;100.00;99132.41;5002295;28;20050;-80
2022/02/16 05:42:24;;;;;;;1383.70;999.90;;;;;;;5.10;100.00;99123.50;4994719;28;20054;-80
2022/02/16 05:44:54;;;;;;;1383.50;999.90;;;;;;;5.09;100.00;99128.06;4998378;28;20462;-81
2022/02/16 05:47:27;;;;;;;1383.80;999.90;;;;;;;5.10;100.00;99112.72;4997480;28;20069;-80
2022/02/16 05:50:00;;;;;;;1388.88;999.90;;;;;;;5.13;100.00;99109.44;5000829;28;20435;-80
2022/02/16 05:52:33;;;;;;;1390.65;999.90;;;;;;;5.14;100.00;99096.75;5019969;28;20387;-80
2022/02/16 05:55:07;;;;;;;1403.10;999.90;;;;;;;5.11;100.00;99100.84;4993955;28;20420;-80
2022/02/16 05:57:42;;;;;;;1426.10;999.90;;;;;;;5.11;100.00;99093.56;4998061;28;20049;-80
2022/02/16 06:00:17;;;;;;;1442.43;999.90;;;;;;;5.17;100.00;99085.44;5003697;28;20065;-79
2022/02/16 06:02:47;;;;;;;1461.30;999.90;;;;;;;5.17;100.00;99085.44;4995682;28;20058;-79
2022/02/16 06:05:20;;;;;;;1471.38;999.90;;;;;;;5.15;100.00;99071.41;5000008;28;20050;-79
2022/02/16 06:07:48;;;;;;;1512.40;999.90;;;;;;;5.16;100.00;99067.63;5004065;28;20045;-79
2022/02/16 06:10:21;;;;;;;1528.28;999.90;;;;;;;5.16;100.00;99056.84;4993408;28;20058;-79
2022/02/16 06:12:58;;;;;;;1543.70;999.90;;;;;;;5.16;100.00;99048.75;4999178;28;20046;-80
2022/02/16 06:15:32;;;;;;;1562.35;999.90;;;;;;;5.11;100.00;99039.63;4996851;28;20395;-79
2022/02/16 06:18:05;;;;;;;1567.70;999.90;;;;;;;5.09;100.00;99031.00;4999240;28;20061;-79
2022/02/16 06:20:38;;;;;;;1578.70;999.90;;;;;;;5.09;100.00;99035.59;5003158;28;20049;-79
2022/02/16 06:23:12;;;;;;;1581.68;999.90;;;;;;;5.04;100.00;99016.75;5019089;28;20054;-80
2022/02/16 06:25:45;;;;;;;1594.93;999.90;;;;;;;5.14;100.00;99019.38;5001980;28;20057;-80
2022/02/16 06:28:20;;;;;;;1604.22;999.90;;;;;;;5.08;100.00;99015.94;5006348;28;20046;-80
2022/02/16 06:30:55;;;;;;;1632.43;999.90;;;;;;;5.10;100.00;99011.03;5002321;28;20042;-80
2022/02/16 06:33:28;;;;;;;1644.70;999.90;;;;;;;5.07;100.00;99003.53;5001155;28;20054;-81
2022/02/16 06:36:01;;;;;;;1645.18;999.90;;;;;;;5.10;100.00;99004.84;5003305;28;20041;-79
2022/02/16 06:38:35;;;;;;;1662.45;999.90;;;;;;;5.09;100.00;99009.44;5005845;28;20050;-80
2022/02/16 06:41:12;;;;;;;1681.53;999.90;;;;;;;5.08;100.00;98994.38;4996607;28;20062;-80
2022/02/16 06:43:46;;;;;;;1700.75;999.90;;;;;;;5.09;100.00;99001.34;5000656;28;20038;-80
2022/02/16 06:46:20;;;;;;;1725.82;999.90;;;;;;;5.14;100.00;99002.38;4994968;28;20050;-80
2022/02/16 06:48:48;;;;;;;1738.55;999.90;;;;;;;5.04;100.00;98987.94;5002670;28;20053;-80
2022/02/16 06:51:21;;;;;;;1753.63;999.90;;;;;;;5.00;100.00;98976.09;4996661;28;20060;-80
2022/02/16 06:53:56;;;;;;;1773.82;999.90;;;;;;;5.08;100.00;98977.38;5006093;28;20046;-80
2022/02/16 06:56:30;;;;;;;1771.20;999.90;;;;;;;5.08;100.00;98974.66;5004970;28;20042;-80
2022/02/16 06:59:24;;;;;;;1781.10;999.90;;;;;;;4.95;100.00;98965.38;5001021;28;20054;-80
2022/02/16 07:02:03;;;;;;;1801.25;999.90;;;;;;;4.97;100.00;98946.22;5000120;28;20403;-80
2022/02/16 07:04:37;;;;;;;1804.25;999.90;;;;;;;4.92;100.00;98930.91;5018255;28;20399;-80
2022/02/16 07:07:06;;;;;;;1815.35;999.90;;;;;;;4.96;100.00;98918.47;4999948;28;20054;-80
2022/02/16 07:09:40;;;;;;;1831.60;999.90;;;;;;;4.99;100.00;98911.69;4994976;28;20053;-80
2022/02/16 07:12:13;;;;;;;1835.38;999.90;;;;;;;4.94;100.00;98907.13;4994949;28;20469;-80
2022/02/16 07:14:53;;;;;;;1843.85;999.90;;;;;;;4.91;100.00;98884.25;4999036;28;20506;-81
2022/02/16 07:17:27;;;;;;;1838.82;999.90;;;;;;;4.89;100.00;98874.88;4999877;28;20060;-80
2022/02/16 07:20:00;;;;;;;1853.65;999.90;;;;;;;4.86;100.00;98862.75;4994065;28;20057;-81
2022/02/16 07:22:39;;;;;;;1855.80;999.90;;;;;;;4.86;100.00;98864.63;5006522;28;20057;-80
2022/02/16 07:25:09;;;;;;;1867.65;999.90;;;;;;;4.89;100.00;98858.69;5004800;28;20045;-80
2022/02/16 07:27:42;;;;;;;1878.75;999.90;;;;;;;4.87;100.00;98856.25;5002598;28;20054;-80
2022/02/16 07:30:21;;;;;;;1877.57;999.90;;;;;;;4.88;100.00;98860.56;4999382;28;20048;-79
2022/02/16 07:32:54;;;;;;;1889.53;999.90;;;;;;;4.86;100.00;98846.59;5000065;28;20073;-79
2022/02/16 07:35:23;;;;;;;1893.53;999.90;;;;;;;4.86;100.00;98830.41;5002885;28;20422;-80
2022/02/16 07:37:53;;;;;;;1913.60;999.90;;;;;;;4.94;100.00;98845.13;4998872;28;20049;-80
2022/02/16 07:40:26;;;;;;;1920.80;999.90;;;;;;;4.97;100.00;98833.78;5000266;28;20049;-79
2022/02/16 07:42:54;;;;;;;1937.40;999.90;;;;;;;4.93;100.00;98830.06;4998516;28;20973;-79
2022/02/16 07:45:30;;;;;;;1951.95;999.90;;;;;;;4.90;100.00;98814.47;4997665;28;20064;-80
2022/02/16 07:48:07;;;;;;;1957.07;999.90;;;;;;;4.92;100.00;98821.16;4988638;28;20064;-80
2022/02/16 07:50:41;;;;;;;1965.40;999.90;;;;;;;4.98;100.00;98810.34;4990083;28;20061;-80
2022/02/16 07:53:49;;;;;;;1971.53;999.90;;;;;;;4.94;100.00;98802.84;4997451;28;20058;-80
2022/02/16 07:56:22;;;;;;;1978.57;999.90;;;;;;;4.92;100.00;98807.69;4992196;28;20069;-81
2022/02/16 07:58:56;;;;;;;1980.10;999.90;;;;;;;4.94;100.00;98791.22;4998876;28;20061;-80
2022/02/16 08:01:25;;;;;;;1979.90;999.90;;;;;;;4.97;100.00;98787.16;5000074;28;20700;-79
2022/02/16 08:04:15;;;;;;;1974.60;999.90;;;;;;;4.95;100.00;98773.97;4994008;28;20069;-79
2022/02/16 08:06:54;;;;;;;1972.25;999.90;;;;;;;4.94;100.00;98770.47;4992173;28;20054;-80
2022/02/16 08:09:23;;;;;;;1976.82;999.90;;;;;;;4.96;100.00;98756.72;5012471;28;20046;-81
2022/02/16 08:11:56;;;;;;;1972.43;999.90;;;;;;;4.97;100.00;98744.03;4994392;28;20050;-83
2022/02/16 08:14:33;;;;;;;1983.47;999.90;;;;;;;4.98;100.00;98741.03;4993562;28;20058;-82
2022/02/16 08:17:09;;;;;;;1999.90;999.90;;;;;;;5.00;100.00;98729.97;4994683;28;20069;-82
2022/02/16 08:19:37;;;;;;;1987.55;999.90;;;;;;;5.07;100.00;98717.72;5001197;28;20072;-81
2022/02/16 08:22:05;;;;;;;1994.22;999.90;;;;;;;5.02;100.00;98712.41;4998575;28;20065;-81
2022/02/16 08:24:39;;;;;;;1997.25;999.90;;;;;;;5.08;100.00;98707.75;4989546;28;20065;-81
2022/02/16 08:27:29;;;;;;;1999.90;999.90;;;;;;;5.14;100.00;98708.47;4999920;28;20046;-80
2022/02/16 08:30:08;;;;;;;1999.90;999.90;;;;;;;5.16;100.00;98698.19;4993539;28;20058;-81
2022/02/16 08:32:43;;;;;;;1999.90;999.90;;;;;;;5.23;100.00;98688.66;5000084;28;20042;-80
2022/02/16 08:35:20;;;;;;;1999.90;999.90;;;;;;;5.24;100.00;98676.75;4993568;28;20057;-81
2022/02/16 08:37:53;;;;;;;1999.90;999.90;;;;;;;5.34;100.00;98656.91;4989328;28;20065;-81
2022/02/16 08:40:27;;;;;;;1999.90;999.90;;;;;;;5.29;100.00;98675.91;4989682;28;20065;-81
2022/02/16 08:43:00;;;;;;;1999.90;999.90;;;;;;;5.25;100.00;98661.41;4989413;28;20053;-81
2022/02/16 08:45:33;;;;;;;1999.90;999.90;;;;;;;5.31;100.00;98656.72;4990086;28;20057;-80
2022/02/16 08:48:07;;;;;;;1999.90;999.90;;;;;;;5.27;100.00;98646.53;4986136;28;20042;-81
2022/02/16 08:50:41;;;;;;;1999.90;999.90;;;;;;;5.30;100.00;98647.00;4984841;28;20057;-81
2022/02/16 08:53:09;;;;;;;1999.90;999.90;;;;;;;5.28;100.00;98640.00;4985281;28;20053;-81
2022/02/16 08:55:42;;;;;;;1999.90;999.90;;;;;;;5.24;100.00;98632.81;4990377;28;20697;-81
2022/02/16 08:58:15;;;;;;;1999.90;999.90;;;;;;;5.27;100.00;98622.25;4991956;28;20041;-81
2022/02/16 09:00:48;;;;;;;1999.90;999.90;;;;;;;5.32;100.00;98612.44;4992233;28;20046;-81
2022/02/16 09:03:24;;;;;;;1999.90;999.90;;;;;;;5.28;100.00;98612.25;4985246;28;20089;-81
2022/02/16 09:05:59;;;;;;;1999.90;999.90;;;;;;;5.34;100.00;98591.38;4983833;28;20064;-80
2022/02/16 09:08:32;;;;;;;1999.90;999.90;;;;;;;5.34;100.00;98588.69;4992067;28;20046;-81
2022/02/16 09:11:05;;;;;;;1999.90;999.90;;;;;;;5.38;100.00;98582.41;4987647;28;20506;-80
2022/02/16 09:13:38;;;;;;;1999.90;999.90;;;;;;;5.43;100.00;98576.91;4983174;28;20499;-80
2022/02/16 09:16:11;;;;;;;1999.90;999.90;;;;;;;5.46;100.00;98578.22;4982277;28;20064;-80
2022/02/16 09:18:46;;;;;;;1999.90;999.90;;;;;;;5.50;100.00;98568.44;4982768;28;20050;-81
2022/02/16 09:21:20;;;;;;;1999.90;999.90;;;;;;;5.48;100.00;98556.34;4985403;28;20415;-81
2022/02/16 09:23:53;;;;;;;1999.90;999.90;;;;;;;5.52;100.00;98533.06;4975680;28;20054;-80
2022/02/16 09:26:27;;;;;;;1999.90;999.90;;;;;;;5.49;100.00;98531.75;4977326;28;20048;-81
2022/02/16 09:29:00;;;;;;;1999.90;999.90;;;;;;;5.54;100.00;98512.78;4976415;28;20060;-80
2022/02/16 09:31:33;;;;;;;1999.90;999.90;;;;;;;5.57;100.00;98506.00;4981382;28;20244;-80
2022/02/16 09:34:07;;;;;;;1999.90;999.90;;;;;;;5.54;100.00;98504.69;4988626;28;20074;-80
2022/02/16 09:36:41;;;;;;;1999.90;999.90;;;;;;;5.55;100.00;98487.41;4981437;28;20050;-81
2022/02/16 09:39:14;;;;;;;1999.90;999.90;;;;;;;5.64;100.00;98470.50;4976756;28;20054;-80
2022/02/16 09:41:47;;;;;;;1999.90;999.90;;;;;;;5.67;100.00;98470.69;4981465;28;20050;-81
2022/02/16 09:44:29;;;;;;;1999.90;999.90;;;;;;;5.80;100.00;98439.41;4981014;28;20511;-81
2022/02/16 09:46:57;;;;;;;1999.90;999.90;;;;;;;5.67;100.00;98437.53;4977725;28;20474;-81
2022/02/16 09:49:32;;;;;;;1999.90;999.90;;;;;;;5.61;100.00;98415.25;4979301;28;20058;-80
2022/02/16 09:52:07;;;;;;;1999.90;999.90;;;;;;;5.64;100.00;98398.44;4975933;28;20255;-81
2022/02/16 09:54:41;;;;;;;1999.90;999.90;;;;;;;5.70;100.00;98402.63;4982857;28;20083;-80
2022/02/16 09:57:14;;;;;;;1999.90;999.90;;;;;;;5.74;100.00;98397.41;4985840;28;20057;-81
2022/02/16 09:59:42;;;;;;;1999.90;999.90;;;;;;;5.74;100.00;98395.50;4985618;28;20054;-81
2022/02/16 10:02:12;;;;;;;1999.90;999.90;;;;;;;5.75;100.00;98380.91;4984091;28;20061;-80
2022/02/16 10:05:05;;;;;;;1999.90;999.90;;;;;;;5.75;100.00;98380.91;4981857;28;20085;-80
2022/02/16 10:07:41;;;;;;;1999.90;999.90;;;;;;;5.77;100.00;98365.25;4978636;28;20059;-81
2022/02/16 10:10:17;;;;;;;1999.90;999.90;;;;;;;5.76;100.00;98363.63;4975881;28;20413;-81
2022/02/16 10:12:52;;;;;;;1999.90;999.90;;;;;;;5.76;100.00;98352.84;4977870;28;20706;-80
2022/02/16 10:15:39;;;;;;;1999.90;999.90;;;;;;;5.81;100.00;98357.31;4980699;28;21062;-81
2022/02/16 10:18:18;;;;;;;1999.90;999.90;;;;;;;5.78;100.00;98358.72;4985574;28;20057;-81
2022/02/16 10:21:06;;;;;;;1999.90;999.90;;;;;;;5.81;100.00;98356.53;4981302;28;20054;-81
2022/02/16 10:23:43;;;;;;;1999.90;999.90;;;;;;;5.85;100.00;98354.81;4973391;28;20042;-81
2022/02/16 10:26:16;;;;;;;;;;;;;;;5.84;100.00;98354.03;4980883;28;20058;-81
2022/02/16 10:28:47;;;;;;;1999.90;999.90;;;;;;;5.85;100.00;98352.91;4981173;28;19941;-81
2022/02/16 10:31:22;;;;;;;1999.90;999.90;;;;;;;5.88;100.00;98335.28;4979478;28;21360;-81
2022/02/16 10:33:56;;;;;;;1999.90;999.90;;;;;;;5.95;100.00;98333.78;4986019;28;20096;-83
2022/02/16 10:36:31;;;;;;;1999.90;999.90;;;;;;;6.01;100.00;98326.38;4983648;28;20054;-81
2022/02/16 10:39:07;;;;;;;1999.90;999.90;;;;;;;6.18;100.00;98325.69;5000717;28;20050;-81
2022/02/16 10:41:42;;;;;;;1999.90;999.90;;;;;;;6.25;100.00;98328.75;4994429;28;20069;-81
2022/02/16 10:44:17;;;;;;;1999.90;999.90;;;;;;;6.28;100.00;98317.34;4997540;28;20065;-81
2022/02/16 10:46:57;;;;;;;1999.90;999.90;;;;;;;6.30;100.00;98300.81;4992726;28;20657;-81
2022/02/16 10:49:32;;;;;;;1999.90;999.90;;;;;;;6.40;100.00;98295.13;4989511;28;20053;-81
2022/02/16 10:52:10;;;;;;;1999.90;999.90;;;;;;;6.43;100.00;98293.72;4980453;28;20065;-81
2022/02/16 10:54:52;;;;;;;1999.90;999.90;;;;;;;6.42;100.00;98271.31;4980269;28;20108;-81
2022/02/16 10:57:20;;;;;;;1999.90;999.90;;;;;;;6.47;100.00;98281.19;4994123;28;20062;-80
2022/02/16 10:59:55;;;;;;;1999.90;999.90;;;;;;;6.52;100.00;98272.94;4989305;28;20050;-81
2022/02/16 11:02:29;;;;;;;1999.90;999.90;;;;;;;6.64;100.00;98259.66;4979343;28;21073;-81
2022/02/16 11:05:03;;;;;;;1999.90;999.90;;;;;;;6.63;100.00;98254.56;4981076;28;20065;-81
2022/02/16 11:07:38;;;;;;;1999.90;999.90;;;;;;;6.75;100.00;98257.47;4988909;28;20049;-81
2022/02/16 11:10:12;;;;;;;1999.90;999.90;;;;;;;6.81;100.00;98252.69;4986635;28;20069;-80
2022/02/16 11:12:46;;;;;;;1999.90;999.90;;;;;;;6.84;100.00;98243.94;4987195;28;20052;-81
2022/02/16 11:15:21;;;;;;;1999.90;999.90;;;;;;;6.91;100.00;98244.28;4986761;28;20058;-81
2022/02/16 11:17:49;;;;;;;1999.90;999.90;;;;;;;6.89;100.00;98226.78;4986028;28;20787;-81
2022/02/16 11:20:25;;;;;;;1999.90;999.90;;;;;;;6.97;100.00;98247.63;4986641;28;20050;-82
2022/02/16 11:23:00;;;;;;;1999.90;999.90;;;;;;;6.95;100.00;98234.41;4983326;28;20054;-81
2022/02/16 11:25:34;;;;;;;1999.90;999.90;;;;;;;7.02;100.00;98228.56;4973635;28;20120;-81
2022/02/16 11:28:12;;;;;;;1999.90;999.90;;;;;;;7.08;100.00;98221.06;4973326;28;20042;-81
2022/02/16 11:30:45;;;;;;;1999.90;999.90;;;;;;;7.16;100.00;98201.34;4975182;28;20054;-81